createdAt,value
2017-11-11T00:00:18.398Z,74.00
2017-11-11T00:02:46.612Z,73.50
2017-11-11T00:05:14.727Z,73.30
2017-11-11T00:07:43.648Z,74.10
2017-11-11T00:10:11.781Z,74.10
2017-11-11T00:12:39.928Z,74.30
2017-11-11T00:15:08.078Z,73.70
2017-11-11T00:17:36.239Z,73.40
2017-11-11T00:20:04.385Z,73.50
2017-11-11T00:22:33.340Z,73.30
2017-11-11T00:25:01.460Z,73.30
2017-11-11T00:27:29.613Z,73.40
2017-11-11T00:29:58.507Z,72.50
2017-11-11T00:32:27.427Z,72.50
2017-11-11T00:34:55.575Z,72.40
2017-11-11T00:37:24.475Z,72.60
2017-11-11T00:39:53.622Z,71.80
2017-11-11T00:42:22.580Z,72.00
2017-11-11T00:44:50.707Z,72.00
2017-11-11T00:47:18.864Z,71.80
2017-11-11T00:49:47.015Z,71.50
2017-11-11T00:52:15.186Z,71.40
2017-11-11T00:54:43.349Z,71.90
2017-11-11T00:57:11.488Z,71.90
2017-11-11T00:59:39.648Z,72.20
2017-11-11T01:02:07.801Z,71.30
2017-11-11T01:04:35.949Z,71.30
2017-11-11T01:07:04.084Z,71.90
2017-11-11T01:09:32.249Z,71.60
2017-11-11T01:12:00.396Z,71.00
2017-11-11T01:14:28.551Z,71.50
2017-11-11T01:16:56.703Z,71.90
2017-11-11T01:19:25.638Z,71.20
2017-11-11T01:21:53.763Z,71.20
2017-11-11T01:24:22.770Z,71.10
2017-11-11T01:26:50.925Z,71.10
2017-11-11T01:29:19.843Z,71.00
2017-11-11T01:31:47.951Z,71.00
2017-11-11T01:34:16.093Z,71.10
2017-11-11T01:36:44.227Z,70.70
2017-11-11T01:39:12.361Z,70.70
2017-11-11T01:41:40.504Z,71.40
2017-11-11T01:44:08.643Z,71.70
2017-11-11T01:46:36.761Z,71.10
2017-11-11T01:49:04.901Z,71.40
2017-11-11T01:51:33.015Z,71.30
2017-11-11T01:54:01.147Z,70.90
2017-11-11T01:56:29.271Z,71.20
2017-11-11T01:58:57.424Z,71.30
2017-11-11T02:01:25.586Z,71.10
2017-11-11T02:03:54.532Z,71.50
2017-11-11T02:06:22.634Z,71.50
2017-11-11T02:08:50.809Z,72.00
2017-11-11T02:11:19.724Z,70.80
2017-11-11T02:13:47.871Z,70.70
2017-11-11T02:16:16.768Z,70.90
2017-11-11T02:18:45.677Z,71.20
2017-11-11T02:21:13.794Z,71.10
2017-11-11T02:23:41.937Z,71.90
2017-11-11T02:26:10.078Z,71.50
2017-11-11T02:28:38.991Z,71.70
2017-11-11T02:31:07.581Z,71.60
2017-11-11T02:33:35.728Z,71.40
2017-11-11T02:36:04.660Z,71.20
2017-11-11T02:38:32.818Z,71.20
2017-11-11T02:41:00.949Z,71.20
2017-11-11T02:43:29.100Z,71.60
2017-11-11T02:45:57.240Z,71.50
2017-11-11T02:48:25.412Z,71.50
2017-11-11T02:50:53.534Z,71.10
2017-11-11T02:53:21.680Z,70.80
2017-11-11T02:55:49.822Z,70.00
2017-11-11T02:58:17.969Z,70.90
2017-11-11T03:00:46.116Z,71.00
2017-11-11T03:03:14.259Z,70.40
2017-11-11T03:05:42.404Z,70.50
2017-11-11T03:08:10.537Z,70.50
2017-11-11T03:10:39.147Z,70.60
2017-11-11T03:13:08.034Z,70.50
2017-11-11T03:15:37.353Z,70.80
2017-11-11T03:18:05.583Z,70.70
2017-11-11T03:20:33.807Z,71.10
2017-11-11T03:23:02.749Z,71.30
2017-11-11T03:25:30.896Z,71.30
2017-11-11T03:27:59.028Z,70.50
2017-11-11T03:30:27.232Z,71.00
2017-11-11T03:32:55.369Z,71.30
2017-11-11T03:35:23.511Z,70.60
2017-11-11T03:37:51.640Z,70.30
2017-11-11T03:40:20.561Z,70.70
2017-11-11T03:42:48.708Z,70.70
2017-11-11T03:45:17.626Z,70.90
2017-11-11T03:47:45.746Z,70.90
2017-11-11T03:50:13.907Z,71.70
2017-11-11T03:52:42.034Z,72.40
2017-11-11T03:55:10.182Z,72.30
2017-11-11T03:57:39.519Z,72.30
2017-11-11T04:00:07.664Z,72.30
2017-11-11T04:02:41.388Z,72.50
2017-11-11T04:05:09.540Z,73.00
2017-11-11T04:07:38.564Z,72.60
2017-11-11T04:10:06.799Z,72.60
2017-11-11T04:12:35.074Z,72.10
2017-11-11T04:15:03.234Z,73.40
2017-11-11T04:17:31.352Z,73.60
2017-11-11T04:19:59.495Z,73.10
2017-11-11T04:22:27.628Z,72.90
2017-11-11T04:24:55.788Z,72.90
2017-11-11T04:27:23.901Z,73.20
2017-11-11T04:29:52.047Z,73.80
2017-11-11T04:32:20.168Z,74.00
2017-11-11T04:34:48.311Z,73.90
2017-11-11T04:37:16.435Z,74.10
2017-11-11T04:39:45.336Z,74.40
2017-11-11T04:42:13.455Z,74.40
2017-11-11T04:44:41.568Z,74.20
2017-11-11T04:47:10.472Z,73.30
2017-11-11T04:49:38.612Z,73.40
2017-11-11T04:52:06.840Z,73.40
2017-11-11T04:54:34.988Z,73.00
2017-11-11T04:57:03.936Z,74.10
2017-11-11T04:59:32.062Z,73.40
2017-11-11T05:02:00.210Z,73.80
2017-11-11T05:04:29.111Z,74.00
2017-11-11T05:06:58.024Z,73.80
2017-11-11T05:09:26.167Z,73.70
2017-11-11T05:11:55.073Z,74.60
2017-11-11T05:14:23.955Z,74.60
2017-11-11T05:16:59.754Z,73.80
2017-11-11T05:19:31.612Z,73.80
2017-11-11T05:21:59.766Z,73.90
2017-11-11T05:24:27.899Z,74.20
2017-11-11T05:26:56.049Z,74.00
2017-11-11T05:29:24.182Z,73.60
2017-11-11T05:31:52.346Z,74.80
2017-11-11T05:34:21.106Z,74.70
2017-11-11T05:36:50.068Z,75.00
2017-11-11T05:39:18.223Z,74.90
2017-11-11T05:41:46.413Z,75.20
2017-11-11T05:44:14.604Z,76.50
2017-11-11T05:46:42.762Z,75.20
2017-11-11T05:49:10.911Z,75.20
2017-11-11T05:51:39.044Z,75.00
2017-11-11T05:54:07.246Z,74.90
2017-11-11T05:56:35.366Z,74.90
2017-11-11T05:59:03.514Z,75.10
2017-11-11T06:01:31.663Z,75.00
2017-11-11T06:04:00.589Z,74.10
2017-11-11T06:06:28.724Z,74.10
2017-11-11T06:08:57.664Z,74.00
2017-11-11T06:11:25.836Z,74.00
2017-11-11T06:13:53.983Z,74.30
2017-11-11T06:16:22.112Z,73.70
2017-11-11T06:18:50.266Z,73.80
2017-11-11T06:21:18.395Z,73.70
2017-11-11T06:23:46.536Z,73.60
2017-11-11T06:26:14.656Z,74.60
2017-11-11T06:28:42.799Z,75.50
2017-11-11T06:31:11.691Z,74.90
2017-11-11T06:33:39.880Z,74.80
2017-11-11T06:36:08.002Z,74.10
2017-11-11T06:38:36.172Z,73.90
2017-11-11T06:41:04.325Z,74.40
2017-11-11T06:43:32.489Z,74.40
2017-11-11T06:46:00.599Z,75.20
2017-11-11T06:48:28.749Z,75.30
2017-11-11T06:50:57.328Z,75.40
2017-11-11T06:53:25.513Z,75.30
2017-11-11T06:55:53.637Z,74.80
2017-11-11T06:58:22.550Z,75.40
2017-11-11T07:00:50.667Z,75.30
2017-11-11T07:03:18.824Z,75.60
2017-11-11T07:05:46.970Z,76.00
2017-11-11T07:08:15.085Z,75.60
2017-11-11T07:10:43.226Z,75.40
2017-11-11T07:13:11.346Z,75.70
2017-11-11T07:15:39.496Z,75.60
2017-11-11T07:18:07.601Z,75.70
2017-11-11T07:20:35.752Z,75.10
2017-11-11T07:23:03.884Z,76.60
2017-11-11T07:25:32.046Z,75.30
2017-11-11T07:28:00.179Z,75.00
2017-11-11T07:30:29.128Z,74.60
2017-11-11T07:32:57.292Z,74.60
2017-11-11T07:35:25.435Z,75.10
2017-11-11T07:37:54.364Z,75.00
2017-11-11T07:40:22.518Z,75.00
2017-11-11T07:42:51.421Z,75.50
2017-11-11T07:45:19.576Z,75.50
2017-11-11T07:47:48.465Z,75.70
2017-11-11T07:50:17.385Z,76.40
2017-11-11T07:52:45.512Z,76.40
2017-11-11T07:55:13.657Z,75.70
2017-11-11T07:57:41.787Z,76.20
2017-11-11T08:00:10.730Z,76.30
2017-11-11T08:02:41.615Z,76.30
2017-11-11T08:05:10.554Z,75.90
2017-11-11T08:07:38.683Z,75.90
2017-11-11T08:10:07.588Z,77.20
2017-11-11T08:12:35.752Z,77.20
2017-11-11T08:15:03.881Z,78.00
2017-11-11T08:17:32.026Z,77.70
2017-11-11T08:20:00.149Z,77.20
2017-11-11T08:22:28.304Z,77.40
2017-11-11T08:24:56.439Z,76.40
2017-11-11T08:27:24.583Z,75.80
2017-11-11T08:29:53.465Z,75.00
2017-11-11T08:32:22.387Z,75.00
2017-11-11T08:34:50.523Z,74.90
2017-11-11T08:37:18.669Z,75.10
2017-11-11T08:39:46.815Z,74.80
2017-11-11T08:42:14.963Z,75.00
2017-11-11T08:44:43.089Z,75.40
2017-11-11T08:47:11.222Z,74.90
2017-11-11T08:49:39.350Z,75.00
2017-11-11T08:52:07.501Z,74.80
2017-11-11T08:54:35.632Z,74.50
2017-11-11T08:57:03.782Z,75.70
2017-11-11T08:59:31.896Z,75.50
2017-11-11T09:02:00.044Z,75.80
2017-11-11T09:04:28.936Z,75.40
2017-11-11T09:06:57.863Z,75.60
2017-11-11T09:09:25.993Z,75.60
2017-11-11T09:11:54.918Z,75.50
2017-11-11T09:14:23.076Z,75.50
2017-11-11T09:16:51.194Z,75.40
2017-11-11T09:19:19.398Z,74.40
2017-11-11T09:21:48.294Z,75.60
2017-11-11T09:24:17.204Z,74.10
2017-11-11T09:26:45.348Z,74.20
2017-11-11T09:29:13.497Z,75.40
2017-11-11T09:31:41.629Z,76.00
2017-11-11T09:34:09.784Z,74.50
2017-11-11T09:36:38.671Z,74.30
2017-11-11T09:39:07.639Z,73.60
2017-11-11T09:41:35.774Z,73.70
2017-11-11T09:44:03.923Z,73.10
2017-11-11T09:46:32.052Z,71.90
2017-11-11T09:49:00.207Z,72.10
2017-11-11T09:51:28.332Z,71.80
2017-11-11T09:53:57.236Z,71.40
2017-11-11T09:56:25.358Z,71.40
2017-11-11T09:58:53.524Z,71.10
2017-11-11T10:01:21.669Z,69.10
2017-11-11T10:03:49.820Z,69.40
2017-11-11T10:06:19.084Z,67.70
2017-11-11T10:08:47.238Z,68.40
2017-11-11T10:11:15.361Z,67.20
2017-11-11T10:13:44.291Z,68.00
2017-11-11T10:16:12.409Z,68.00
2017-11-11T10:18:40.560Z,67.50
2017-11-11T10:21:08.687Z,66.90
2017-11-11T10:23:36.837Z,67.50
2017-11-11T10:26:05.729Z,67.90
2017-11-11T10:28:34.660Z,69.10
2017-11-11T10:31:02.804Z,69.10
2017-11-11T10:33:30.928Z,67.50
2017-11-11T10:35:59.077Z,68.80
2017-11-11T10:38:27.201Z,68.70
2017-11-11T10:40:55.373Z,68.70
2017-11-11T10:43:23.500Z,69.80
2017-11-11T10:45:51.637Z,70.10
2017-11-11T10:48:20.531Z,69.50
2017-11-11T10:50:49.452Z,70.30
2017-11-11T10:53:17.570Z,70.30
2017-11-11T10:55:45.712Z,70.10
2017-11-11T10:58:13.856Z,70.30
2017-11-11T11:00:42.019Z,70.30
2017-11-11T11:03:10.899Z,69.80
2017-11-11T11:05:39.809Z,69.60
2017-11-11T11:08:07.921Z,69.60
2017-11-11T11:10:36.075Z,68.30
2017-11-11T11:13:04.216Z,69.80
2017-11-11T11:15:33.130Z,69.30
2017-11-11T11:18:01.258Z,69.30
2017-11-11T11:20:29.403Z,70.00
2017-11-11T11:22:57.538Z,71.00
2017-11-11T11:25:26.456Z,70.60
2017-11-11T11:27:54.583Z,70.60
2017-11-11T11:30:22.732Z,70.40
2017-11-11T11:32:50.871Z,70.30
2017-11-11T11:35:19.003Z,70.00
2017-11-11T11:37:47.904Z,68.70
2017-11-11T11:40:16.810Z,69.30
2017-11-11T11:42:44.935Z,69.30
2017-11-11T11:45:13.108Z,70.80
2017-11-11T11:47:41.226Z,69.90
2017-11-11T11:50:09.383Z,71.10
2017-11-11T11:52:38.308Z,68.40
2017-11-11T11:55:06.452Z,68.30
2017-11-11T11:57:35.372Z,68.00
2017-11-11T12:00:03.507Z,67.90
2017-11-11T12:02:37.164Z,67.40
2017-11-11T12:05:05.295Z,67.70
2017-11-11T12:07:34.218Z,67.40
2017-11-11T12:10:02.371Z,67.30
2017-11-11T12:12:30.530Z,66.80
2017-11-11T12:14:59.413Z,70.10
2017-11-11T12:17:28.326Z,69.80
2017-11-11T12:19:56.464Z,69.70
2017-11-11T12:22:24.623Z,69.90
2017-11-11T12:24:52.733Z,69.40
2017-11-11T12:27:21.705Z,70.40
2017-11-11T12:29:49.827Z,70.30
2017-11-11T12:32:17.975Z,69.70
2017-11-11T12:34:46.852Z,70.90
2017-11-11T12:37:15.785Z,71.30
2017-11-11T12:39:43.908Z,71.30
2017-11-11T12:42:12.073Z,71.60
2017-11-11T12:44:40.215Z,72.10
2017-11-11T12:47:08.372Z,73.30
2017-11-11T12:49:36.500Z,72.80
2017-11-11T12:52:04.648Z,72.40
2017-11-11T12:54:32.767Z,73.00
2017-11-11T12:57:01.670Z,73.10
2017-11-11T12:59:29.787Z,73.10
2017-11-11T13:01:57.940Z,73.60
2017-11-11T13:04:26.071Z,73.50
2017-11-11T13:06:54.993Z,72.70
2017-11-11T13:09:23.135Z,72.80
2017-11-11T13:11:52.044Z,73.70
2017-11-11T13:14:20.163Z,73.70
2017-11-11T13:16:48.300Z,73.30
2017-11-11T13:19:16.442Z,73.40
2017-11-11T13:21:44.597Z,74.10
2017-11-11T13:24:12.715Z,74.10
2017-11-11T13:26:40.843Z,73.60
2017-11-11T13:29:09.000Z,74.00
2017-11-11T13:31:37.124Z,73.70
2017-11-11T13:34:06.039Z,74.20
2017-11-11T13:36:34.167Z,74.20
2017-11-11T13:39:02.318Z,74.20
2017-11-11T13:41:30.450Z,74.40
2017-11-11T13:43:58.597Z,74.40
2017-11-11T13:46:27.477Z,74.10
2017-11-11T13:48:55.611Z,74.10
2017-11-11T13:51:23.736Z,74.50
2017-11-11T13:53:52.651Z,73.60
2017-11-11T13:56:20.776Z,73.60
2017-11-11T13:58:48.931Z,73.60
2017-11-11T14:01:17.076Z,74.10
2017-11-11T14:03:45.232Z,74.20
2017-11-11T14:06:14.110Z,74.20
2017-11-11T14:08:43.019Z,74.30
2017-11-11T14:11:11.140Z,74.30
2017-11-11T14:13:39.276Z,74.20
2017-11-11T14:16:07.387Z,74.20
2017-11-11T14:18:35.536Z,74.50
2017-11-11T14:21:03.649Z,74.10
2017-11-11T14:23:31.794Z,73.90
2017-11-11T14:25:59.907Z,74.50
2017-11-11T14:28:28.809Z,73.80
2017-11-11T14:30:57.720Z,73.40
2017-11-11T14:33:25.845Z,73.40
2017-11-11T14:35:54.024Z,74.20
2017-11-11T14:38:22.149Z,73.80
2017-11-11T14:40:50.297Z,73.80
2017-11-11T14:43:19.187Z,74.20
2017-11-11T14:45:48.098Z,72.80
2017-11-11T14:48:16.230Z,72.80
2017-11-11T14:50:45.162Z,73.40
2017-11-11T14:53:13.289Z,73.40
2017-11-11T14:55:41.440Z,73.80
2017-11-11T14:58:09.570Z,74.10
2017-11-11T15:00:37.747Z,74.20
2017-11-11T15:03:05.875Z,74.40
2017-11-11T15:05:34.474Z,73.80
2017-11-11T15:08:03.379Z,74.10
2017-11-11T15:10:32.296Z,74.70
2017-11-11T15:13:00.439Z,74.70
2017-11-11T15:15:29.353Z,74.80
2017-11-11T15:17:57.513Z,74.80
2017-11-11T15:20:26.424Z,75.50
2017-11-11T15:22:54.547Z,75.30
2017-11-11T15:25:22.696Z,75.10
2017-11-11T15:27:50.816Z,75.20
2017-11-11T15:30:19.734Z,73.30
2017-11-11T15:32:47.842Z,73.30
2017-11-11T15:35:15.994Z,73.60
2017-11-11T15:37:44.121Z,74.50
2017-11-11T15:40:12.274Z,75.30
2017-11-11T15:42:40.391Z,75.60
2017-11-11T15:45:09.286Z,76.50
2017-11-11T15:47:37.416Z,76.60
2017-11-11T15:50:05.556Z,76.70
2017-11-11T15:52:33.686Z,76.30
2017-11-11T15:55:02.907Z,76.80
2017-11-11T15:57:31.032Z,76.80
2017-11-11T15:59:59.238Z,77.10
2017-11-11T16:02:27.499Z,77.00
2017-11-11T16:04:55.611Z,77.10
2017-11-11T16:07:23.818Z,77.50
2017-11-11T16:09:51.932Z,77.60
2017-11-11T16:12:20.071Z,77.90
2017-11-11T16:14:48.178Z,78.10
2017-11-11T16:17:16.317Z,77.70
2017-11-11T16:19:44.438Z,77.50
2017-11-11T16:22:13.497Z,76.40
2017-11-11T16:24:42.427Z,76.80
2017-11-11T16:27:11.349Z,77.80
2017-11-11T16:29:39.476Z,77.70
2017-11-11T16:32:07.636Z,77.60
2017-11-11T16:34:35.773Z,77.20
2017-11-11T16:37:03.902Z,77.80
2017-11-11T16:39:32.015Z,77.10
2017-11-11T16:42:00.199Z,78.40
2017-11-11T16:44:28.311Z,78.70
2017-11-11T16:46:56.473Z,78.70
2017-11-11T16:49:24.601Z,77.70
2017-11-11T16:51:52.760Z,77.40
2017-11-11T16:54:21.648Z,77.50
2017-11-11T16:56:50.577Z,77.60
2017-11-11T16:59:18.691Z,77.50
2017-11-11T17:01:46.852Z,77.50
2017-11-11T17:04:15.057Z,77.30
2017-11-11T17:06:43.965Z,78.20
2017-11-11T17:09:12.175Z,78.20
2017-11-11T17:11:40.303Z,78.00
2017-11-11T17:14:09.212Z,77.90
2017-11-11T17:16:37.397Z,77.80
2017-11-11T17:19:05.553Z,78.10
2017-11-11T17:21:34.440Z,77.90
2017-11-11T17:24:03.349Z,78.20
2017-11-11T17:26:31.476Z,78.20
2017-11-11T17:28:59.632Z,78.10
2017-11-11T17:31:27.750Z,77.90
2017-11-11T17:33:56.670Z,77.70
2017-11-11T17:36:24.810Z,77.70
2017-11-11T17:38:55.135Z,77.50
2017-11-11T17:41:23.359Z,77.50
2017-11-11T17:43:51.610Z,77.50
2017-11-11T17:46:21.111Z,77.70
2017-11-11T17:48:51.137Z,77.70
2017-11-11T17:51:19.304Z,77.90
2017-11-11T17:53:48.312Z,77.90
2017-11-11T17:56:16.485Z,77.90
2017-11-11T17:58:44.709Z,77.60
2017-11-11T18:01:13.264Z,78.50
2017-11-11T18:03:41.894Z,77.70
2017-11-11T18:06:10.887Z,78.30
2017-11-11T18:08:39.028Z,78.30
2017-11-11T18:11:07.151Z,78.70
2017-11-11T18:13:35.314Z,78.90
2017-11-11T18:16:03.932Z,78.70
2017-11-11T18:18:32.110Z,78.60
2017-11-11T18:21:01.403Z,79.00
2017-11-11T18:23:29.987Z,78.80
2017-11-11T18:25:58.190Z,79.00
2017-11-11T18:28:26.336Z,79.00
2017-11-11T18:31:01.500Z,78.50
2017-11-11T18:33:29.747Z,78.60
2017-11-11T18:35:58.644Z,78.50
2017-11-11T18:38:27.630Z,78.40
2017-11-11T18:40:56.781Z,78.90
2017-11-11T18:43:24.924Z,79.00
2017-11-11T18:45:53.122Z,79.00
2017-11-11T18:48:21.560Z,79.00
2017-11-11T18:50:50.761Z,78.80
2017-11-11T18:53:19.800Z,79.20
2017-11-11T18:55:47.982Z,79.20
2017-11-11T18:58:16.100Z,79.30
2017-11-11T19:00:45.009Z,79.30
2017-11-11T19:03:13.135Z,79.30
2017-11-11T19:05:45.211Z,79.90
2017-11-11T19:08:13.445Z,79.60
2017-11-11T19:10:42.250Z,79.30
2017-11-11T19:13:11.832Z,79.50
2017-11-11T19:15:40.028Z,79.10
2017-11-11T19:18:08.153Z,79.00
2017-11-11T19:20:36.672Z,79.00
2017-11-11T19:23:06.078Z,79.70
2017-11-11T19:25:34.267Z,79.70
2017-11-11T19:28:02.436Z,79.20
2017-11-11T19:30:31.402Z,78.70
2017-11-11T19:32:59.673Z,78.60
2017-11-11T19:35:28.203Z,78.40
2017-11-11T19:37:56.397Z,78.20
2017-11-11T19:40:24.579Z,78.40
2017-11-11T19:42:52.799Z,78.90
2017-11-11T19:45:22.505Z,79.00
2017-11-11T19:47:50.701Z,79.10
2017-11-11T19:50:19.620Z,78.20
2017-11-11T19:52:47.739Z,78.20
2017-11-11T19:55:15.906Z,78.20
2017-11-11T19:57:44.030Z,78.00
2017-11-11T20:00:12.946Z,77.70
2017-11-11T20:02:42.619Z,77.40
2017-11-11T20:05:11.519Z,77.90
2017-11-11T20:07:40.407Z,77.40
2017-11-11T20:10:09.338Z,77.10
2017-11-11T20:12:37.906Z,77.00
2017-11-11T20:15:06.090Z,77.60
2017-11-11T20:17:34.221Z,77.40
2017-11-11T20:20:02.425Z,78.10
2017-11-11T20:22:30.560Z,77.10
2017-11-11T20:24:58.726Z,77.20
2017-11-11T20:27:26.854Z,77.30
2017-11-11T20:29:54.997Z,77.70
2017-11-11T20:32:23.929Z,77.70
2017-11-11T20:34:52.062Z,77.70
2017-11-11T20:37:20.966Z,78.20
2017-11-11T20:39:49.853Z,78.00
2017-11-11T20:42:18.762Z,78.50
2017-11-11T20:44:46.893Z,78.40
2017-11-11T20:47:15.031Z,78.50
2017-11-11T20:49:43.160Z,78.40
2017-11-11T20:52:12.073Z,78.10
2017-11-11T20:54:40.199Z,78.10
2017-11-11T20:57:08.401Z,78.00
2017-11-11T20:59:37.307Z,78.10
2017-11-11T21:02:06.202Z,77.80
2017-11-11T21:04:34.345Z,77.80
2017-11-11T21:07:02.489Z,77.80
2017-11-11T21:09:30.637Z,77.60
2017-11-11T21:11:58.789Z,77.10
2017-11-11T21:14:27.732Z,77.20
2017-11-11T21:16:55.873Z,77.20
2017-11-11T21:19:23.999Z,77.10
2017-11-11T21:21:52.162Z,77.20
2017-11-11T21:24:20.291Z,77.20
2017-11-11T21:26:48.440Z,77.40
2017-11-11T21:29:17.324Z,77.60
2017-11-11T21:31:45.473Z,77.60
2017-11-11T21:34:13.595Z,77.40
2017-11-11T21:36:42.527Z,77.20
2017-11-11T21:39:10.668Z,77.20
2017-11-11T21:41:38.884Z,77.00
2017-11-11T21:44:07.015Z,77.00
2017-11-11T21:46:35.178Z,77.10
2017-11-11T21:49:04.106Z,76.90
2017-11-11T21:51:32.304Z,76.90
2017-11-11T21:54:00.428Z,76.60
2017-11-11T21:56:28.577Z,76.50
2017-11-11T21:58:56.716Z,76.80
2017-11-11T22:01:24.866Z,76.80
2017-11-11T22:03:53.004Z,76.40
2017-11-11T22:06:21.917Z,75.50
2017-11-11T22:08:50.043Z,75.60
2017-11-11T22:11:18.184Z,75.40
2017-11-11T22:13:46.344Z,75.80
2017-11-11T22:16:14.458Z,75.80
2017-11-11T22:18:42.612Z,76.00
2017-11-11T22:21:10.944Z,75.90
2017-11-11T22:23:39.154Z,76.00
2017-11-11T22:26:07.278Z,76.00
2017-11-11T22:28:35.433Z,75.80
2017-11-11T22:31:03.574Z,75.70
2017-11-11T22:33:31.740Z,75.70
2017-11-11T22:35:59.870Z,75.90
2017-11-11T22:38:28.049Z,76.10
2017-11-11T22:40:56.189Z,75.90
2017-11-11T22:43:24.352Z,75.90
2017-11-11T22:45:52.478Z,76.10
2017-11-11T22:48:20.621Z,75.70
2017-11-11T22:50:48.746Z,75.90
2017-11-11T22:53:16.977Z,76.30
2017-11-11T22:55:45.099Z,76.50
2017-11-11T22:58:13.260Z,76.00
2017-11-11T23:00:41.394Z,75.60
2017-11-11T23:03:09.522Z,76.00
2017-11-11T23:05:37.655Z,76.30
2017-11-11T23:08:05.839Z,76.40
2017-11-11T23:10:33.961Z,76.20
2017-11-11T23:13:02.121Z,76.70
2017-11-11T23:15:30.916Z,77.10
2017-11-11T23:17:59.056Z,76.90
2017-11-11T23:20:27.189Z,76.70
2017-11-11T23:22:55.331Z,77.30
2017-11-11T23:25:23.497Z,76.80
2017-11-11T23:27:52.380Z,76.80
2017-11-11T23:30:21.296Z,76.50
2017-11-11T23:32:50.268Z,76.60
2017-11-11T23:35:19.180Z,76.50
2017-11-11T23:37:47.333Z,76.50
2017-11-11T23:40:16.262Z,76.70
2017-11-11T23:42:44.397Z,76.70
2017-11-11T23:45:13.303Z,77.40
2017-11-11T23:47:41.421Z,77.40
2017-11-11T23:50:09.563Z,77.20
2017-11-11T23:52:37.723Z,77.00
2017-11-11T23:55:05.861Z,76.90
2017-11-11T23:57:34.005Z,76.70
